الصفحة الرئيسية
METAR-TAF:

METAR-TAF

مطار :

Mopti, مالي

دائرة عرض: 14-30-46N, خط طول: 004-04-46W, ارتفاع: 276 متر

مراقبة الطقس الحالي

تاريخ ووقت الإصدار 4ساعات و 14 دقيقة قبل الساعة 18:00UTC
ريح 4 عقدة من الغرب
درجة الحرارة 30°درجة مئوية
الرطوبة 62%
ضغط 1009 hPa
الرؤية 10 كم أو أكثر
غيوم قليلة على ارتفاع 3000 قدم

METAR: GAMB 211800Z 26004KT 9999 FEW030 30/22 Q1009

زمن: 22:14 (22:14 UTC)


TAF: مفقودة

أرصاد الطقس والتوقعات من أكثر من 4000 مطار (تقارير الطقس للمطار METAR والتنبؤ بالطقس بالمطارTAF).

المحطات المتاحة هي النقط الصفراء والحمراء على الخريطة.

حرك المؤشر فوق النقطة لمعرفة اسم المحطة.

ثم انقر لمعرفة أرصاد وتوقعات الطقس.

لتغيير الخارطة: اضغط على الأزرار الخضراء مع رمز الصليب الأسود للتكبير. على الزر الأخضر مع شرطة للتصغير، أو على الأسهم الخضراء للخرائط المجاورة.


METAR-TAF: